createdAt,value
2024-04-04T00:02:02.079Z,1.99
2024-04-04T00:07:04.809Z,1.97
2024-04-04T00:12:07.560Z,2.02
2024-04-04T00:17:10.274Z,1.99
2024-04-04T00:22:13.361Z,1.92
2024-04-04T00:27:17.246Z,1.92
2024-04-04T00:32:20.417Z,1.95
2024-04-04T00:37:23.130Z,1.94
2024-04-04T00:42:25.706Z,1.89
2024-04-04T00:47:28.442Z,1.85
2024-04-04T00:52:31.256Z,1.82
2024-04-04T00:57:35.227Z,1.83
2024-04-04T01:02:38.413Z,1.79
2024-04-04T01:07:41.378Z,1.73
2024-04-04T01:12:44.003Z,1.73
2024-04-04T01:17:46.676Z,1.72
2024-04-04T01:22:50.379Z,1.71
2024-04-04T01:27:54.447Z,1.72
2024-04-04T01:32:57.089Z,1.75
2024-04-04T01:37:59.903Z,1.75
2024-04-04T01:43:03.811Z,1.75
2024-04-04T01:48:06.931Z,1.76
2024-04-04T01:53:09.560Z,1.74
2024-04-04T01:58:12.186Z,1.74
2024-04-04T02:03:15.224Z,1.78
2024-04-04T02:08:17.941Z,1.81
2024-04-04T02:13:20.958Z,1.83
2024-04-04T02:18:24.677Z,1.83
2024-04-04T02:23:29.115Z,1.79
2024-04-04T02:28:31.816Z,1.78
2024-04-04T02:33:34.510Z,1.81
2024-04-04T02:38:37.544Z,1.82
2024-04-04T02:43:40.528Z,1.83
2024-04-04T02:48:44.409Z,1.79
2024-04-04T02:53:47.051Z,1.77
2024-04-04T02:58:50.029Z,1.81
2024-04-04T03:03:52.721Z,1.83
2024-04-04T03:08:55.663Z,1.75
2024-04-04T03:13:58.541Z,1.72
2024-04-04T03:19:01.227Z,1.75
2024-04-04T03:24:03.971Z,1.77
2024-04-04T03:29:06.620Z,1.75
2024-04-04T03:34:09.304Z,1.77
2024-04-04T03:39:12.065Z,2.30
2024-04-04T03:44:14.804Z,2.72
2024-04-04T03:49:17.445Z,3.11
2024-04-04T03:54:20.089Z,3.37
2024-04-04T03:59:24.691Z,3.58
2024-04-04T04:04:27.341Z,3.75
2024-04-04T04:09:30.023Z,3.96
2024-04-04T04:14:33.308Z,3.99
2024-04-04T04:19:35.988Z,4.01
2024-04-04T04:24:38.880Z,4.07
2024-04-04T04:29:41.707Z,4.12
2024-04-04T04:34:44.372Z,4.23
2024-04-04T04:39:47.333Z,4.25
2024-04-04T04:44:49.942Z,4.31
2024-04-04T04:49:53.435Z,4.34
2024-04-04T04:54:56.198Z,4.38
2024-04-04T04:59:59.353Z,4.39
2024-04-04T05:05:16.445Z,4.29
2024-04-04T05:10:19.025Z,4.27
2024-04-04T05:15:21.705Z,4.36
2024-04-04T05:20:24.331Z,4.46
2024-04-04T05:25:28.331Z,4.59
2024-04-04T05:30:32.605Z,4.63
2024-04-04T05:35:35.340Z,4.61
2024-04-04T05:40:38.027Z,4.60
2024-04-04T05:45:40.793Z,4.55
2024-04-04T05:50:43.817Z,4.61
2024-04-04T05:55:47.976Z,4.68
2024-04-04T06:00:50.742Z,4.68
2024-04-04T06:05:53.400Z,4.74
2024-04-04T06:10:56.170Z,4.81
2024-04-04T06:16:04.794Z,4.79
2024-04-04T06:21:07.659Z,4.73
2024-04-04T06:26:10.285Z,4.63
2024-04-04T06:31:13.169Z,4.52
2024-04-04T06:36:17.567Z,4.48
2024-04-04T06:41:20.273Z,4.46
2024-04-04T06:46:23.007Z,4.57
2024-04-04T06:51:28.806Z,4.83
2024-04-04T06:56:31.687Z,5.04
2024-04-04T07:01:35.942Z,5.25
2024-04-04T07:06:39.385Z,5.43
2024-04-04T07:11:42.791Z,5.64
2024-04-04T07:16:45.583Z,5.78
2024-04-04T07:21:50.294Z,5.94
2024-04-04T07:26:53.193Z,6.17
2024-04-04T07:31:56.698Z,6.36
2024-04-04T07:36:59.574Z,6.47
2024-04-04T07:42:02.803Z,6.51
2024-04-04T07:47:06.108Z,6.39
2024-04-04T07:52:09.129Z,6.17
2024-04-04T07:57:13.283Z,6.06
2024-04-04T08:02:17.533Z,6.11
2024-04-04T08:07:20.675Z,6.24
2024-04-04T08:12:23.488Z,6.34
2024-04-04T08:17:26.254Z,6.36
2024-04-04T08:22:28.957Z,6.25
2024-04-04T08:27:31.587Z,6.25
2024-04-04T08:32:36.471Z,6.33
2024-04-04T08:37:40.190Z,6.45
2024-04-04T08:42:44.010Z,6.39
2024-04-04T08:47:46.935Z,6.26
2024-04-04T08:52:49.652Z,6.22
2024-04-04T08:57:52.279Z,6.07
2024-04-04T09:02:54.994Z,5.86
2024-04-04T09:07:58.987Z,5.72
2024-04-04T09:13:02.602Z,5.53
2024-04-04T09:18:06.229Z,5.16
2024-04-04T09:23:11.221Z,4.89
2024-04-04T09:28:15.408Z,4.72
2024-04-04T09:33:21.645Z,4.64
2024-04-04T09:38:27.327Z,4.65
2024-04-04T09:43:30.040Z,4.72
2024-04-04T09:48:37.058Z,4.81
2024-04-04T09:53:41.543Z,4.83
2024-04-04T09:58:47.587Z,4.81
2024-04-04T10:04:00.846Z,4.81
2024-04-04T10:09:16.889Z,4.81
2024-04-04T10:14:21.449Z,4.78
2024-04-04T10:19:25.466Z,4.72
2024-04-04T10:24:28.124Z,4.70
2024-04-04T10:29:36.858Z,4.70
2024-04-04T10:34:42.969Z,4.79
2024-04-04T10:39:51.264Z,4.99
2024-04-04T10:44:55.368Z,5.32
2024-04-04T10:49:58.550Z,5.62
2024-04-04T10:55:05.454Z,5.96
2024-04-04T11:00:14.815Z,6.20
2024-04-04T11:05:19.706Z,6.33
2024-04-04T11:10:24.291Z,6.41
2024-04-04T11:15:27.264Z,6.63
2024-04-04T11:20:30.014Z,7.09
2024-04-04T11:25:32.864Z,7.50
2024-04-04T11:30:35.662Z,7.68
2024-04-04T11:35:38.680Z,7.66
2024-04-04T11:40:41.980Z,7.84
2024-04-04T11:45:45.199Z,8.06
2024-04-04T11:50:48.008Z,8.32
2024-04-04T11:55:53.323Z,8.45
2024-04-04T12:00:56.076Z,8.58
2024-04-04T12:06:00.105Z,8.59
2024-04-04T12:11:05.799Z,8.50
2024-04-04T12:16:09.785Z,8.57
2024-04-04T12:21:18.828Z,8.77
2024-04-04T12:26:21.479Z,8.93
2024-04-04T12:31:24.182Z,9.07
2024-04-04T12:36:27.011Z,9.07
2024-04-04T12:41:29.922Z,9.04
2024-04-04T12:46:37.038Z,9.17
2024-04-04T12:51:40.198Z,9.32
2024-04-04T12:56:43.179Z,9.52
2024-04-04T13:01:47.498Z,9.64
2024-04-04T13:06:50.448Z,9.58
2024-04-04T13:11:53.210Z,9.52
2024-04-04T13:16:57.430Z,9.42
2024-04-04T13:22:00.400Z,9.12
2024-04-04T13:27:04.455Z,8.84
2024-04-04T13:32:07.444Z,8.62
2024-04-04T13:37:10.206Z,8.42
2024-04-04T13:42:12.957Z,8.28
2024-04-04T13:47:17.215Z,8.27
2024-04-04T13:52:20.687Z,8.29
2024-04-04T13:57:23.422Z,8.42
2024-04-04T14:02:26.101Z,8.72
2024-04-04T14:07:29.359Z,9.01
2024-04-04T14:12:32.480Z,9.23
2024-04-04T14:17:38.442Z,9.33
2024-04-04T14:22:41.206Z,9.31
2024-04-04T14:27:44.092Z,9.14
2024-04-04T14:32:47.038Z,9.14
2024-04-04T14:37:51.730Z,9.37
2024-04-04T14:42:54.526Z,9.49
2024-04-04T14:47:57.569Z,9.39
2024-04-04T14:53:00.270Z,9.16
2024-04-04T14:58:09.214Z,9.06
2024-04-04T15:03:13.103Z,9.05
2024-04-04T15:08:16.106Z,8.95
2024-04-04T15:13:19.107Z,8.88
2024-04-04T15:18:22.022Z,8.87
2024-04-04T15:23:24.998Z,8.87
2024-04-04T15:28:27.715Z,8.87
2024-04-04T15:33:31.240Z,8.86
2024-04-04T15:38:34.070Z,8.76
2024-04-04T15:43:37.187Z,8.65
2024-04-04T15:48:42.845Z,8.55
2024-04-04T15:53:45.510Z,8.45
2024-04-04T15:58:48.111Z,8.39
2024-04-04T16:03:50.812Z,8.30
2024-04-04T16:08:54.472Z,8.20
2024-04-04T16:13:57.564Z,8.07
2024-04-04T16:19:00.263Z,7.98
2024-04-04T16:24:04.156Z,7.93
2024-04-04T16:29:07.863Z,7.87
2024-04-04T16:34:11.163Z,7.84
2024-04-04T16:39:14.610Z,7.81
2024-04-04T16:44:17.699Z,7.80
2024-04-04T16:49:20.419Z,7.81
2024-04-04T16:54:23.199Z,7.81
2024-04-04T16:59:25.888Z,7.80
2024-04-04T17:04:28.561Z,7.77
2024-04-04T17:09:31.225Z,7.74
2024-04-04T17:14:34.661Z,7.74
2024-04-04T17:19:38.600Z,7.74
2024-04-04T17:24:41.682Z,7.73
2024-04-04T17:29:46.371Z,7.71
2024-04-04T17:34:49.048Z,7.68
2024-04-04T17:39:51.699Z,7.67
2024-04-04T17:44:54.382Z,7.66
2024-04-04T17:49:57.596Z,7.66
2024-04-04T17:55:00.982Z,7.63
2024-04-04T18:00:05.244Z,7.62
2024-04-04T18:05:08.130Z,7.62
2024-04-04T18:10:10.894Z,7.63
2024-04-04T18:20:18.372Z,7.67
2024-04-04T18:25:21.568Z,7.69
2024-04-04T18:30:24.282Z,7.69
2024-04-04T18:35:27.128Z,7.69
2024-04-04T18:40:29.870Z,7.71
2024-04-04T18:45:33.076Z,7.74
2024-04-04T18:50:36.547Z,7.80
2024-04-04T18:55:39.297Z,7.88
2024-04-04T19:00:45.997Z,7.94
2024-04-04T19:05:55.512Z,7.99
2024-04-04T19:10:58.856Z,8.01
2024-04-04T19:16:03.808Z,7.99
2024-04-04T19:21:09.728Z,8.00
2024-04-04T19:26:12.385Z,8.03
2024-04-04T19:31:15.053Z,8.05
2024-04-04T19:36:18.476Z,8.08
2024-04-04T19:41:21.089Z,8.11
2024-04-04T19:46:23.783Z,8.13
2024-04-04T19:51:26.427Z,8.13
2024-04-04T19:56:29.031Z,8.11
2024-04-04T20:01:32.263Z,8.12
2024-04-04T20:06:34.896Z,8.14
2024-04-04T20:11:38.154Z,8.15
2024-04-04T20:16:42.115Z,8.18
2024-04-04T20:21:45.283Z,8.20
2024-04-04T20:26:47.959Z,8.21
2024-04-04T20:31:50.780Z,8.23
2024-04-04T20:36:53.409Z,8.26
2024-04-04T20:41:56.189Z,8.26
2024-04-04T20:46:58.845Z,8.28
2024-04-04T20:52:02.242Z,8.28
2024-04-04T20:57:05.197Z,8.29
2024-04-04T21:02:08.743Z,8.29
2024-04-04T21:07:11.368Z,8.26
2024-04-04T21:12:14.010Z,8.26
2024-04-04T21:17:17.181Z,8.30
2024-04-04T21:22:19.817Z,8.36
2024-04-04T21:27:22.772Z,8.44
2024-04-04T21:32:25.378Z,8.55
2024-04-04T21:37:28.010Z,8.62
2024-04-04T21:42:32.654Z,8.67
2024-04-04T21:47:35.676Z,8.69
2024-04-04T21:52:38.539Z,8.73
2024-04-04T21:57:41.255Z,8.79
2024-04-04T22:02:44.459Z,8.85
2024-04-04T22:07:47.107Z,8.93
2024-04-04T22:12:49.828Z,9.04
2024-04-04T22:17:53.404Z,9.16
2024-04-04T22:22:56.000Z,9.28
2024-04-04T22:27:59.230Z,9.42
2024-04-04T22:33:03.007Z,9.56
2024-04-04T22:38:06.080Z,9.69
2024-04-04T22:43:09.283Z,9.83
2024-04-04T22:48:15.554Z,10.01
2024-04-04T22:53:18.485Z,10.16
2024-04-04T22:58:24.135Z,10.24
2024-04-04T23:03:27.809Z,10.28
2024-04-04T23:08:30.522Z,10.34
2024-04-04T23:13:34.630Z,10.38
2024-04-04T23:18:37.377Z,10.43
2024-04-04T23:23:40.643Z,10.48
2024-04-04T23:28:45.346Z,10.53
2024-04-04T23:33:48.040Z,10.56
2024-04-04T23:38:51.104Z,10.58
2024-04-04T23:43:53.759Z,10.57
2024-04-04T23:48:56.363Z,10.52
2024-04-04T23:53:59.469Z,10.46
2024-04-04T23:59:02.333Z,10.44
